Time;durP1;ratioP1;P1;durP2;ratioP2;P2;SDS_P1;SDS_P2;PMS_P1;PMS_P2;Temp;Humidity;BMP_temperature;BMP_pressure;BME280_temperature;BME280_humidity;BME280_pressure;Samples;Min_cycle;Max_cycle;Signal;HPM_P1;HPM_P2
2022/09/23 00:01:26;;;;;;;3.23;2.93;;;23.20;91.50;;;;;;5145036;27;20575;-69
2022/09/23 00:03:59;;;;;;;3.10;2.80;;;22.90;91.10;;;;;;5145850;27;20441;-69
2022/09/23 00:06:30;;;;;;;3.27;2.70;;;22.90;90.70;;;;;;5145092;27;20444;-70
2022/09/23 00:09:00;;;;;;;3.07;2.60;;;22.70;91.10;;;;;;5144971;27;20492;-70
2022/09/23 00:11:31;;;;;;;3.27;2.97;;;22.50;91.90;;;;;;5143953;27;20470;-69
2022/09/23 00:14:02;;;;;;;3.47;3.17;;;22.60;91.20;;;;;;5145504;27;20449;-69
2022/09/23 00:16:37;;;;;;;3.73;2.93;;;22.70;91.70;;;;;;5145033;27;20413;-69
2022/09/23 00:19:08;;;;;;;3.80;3.50;;;22.70;91.30;;;;;;5145124;27;20470;-70
2022/09/23 00:21:39;;;;;;;3.10;2.77;;;22.60;91.60;;;;;;5144470;27;20509;-69
2022/09/23 00:24:10;;;;;;;5.07;3.37;;;22.60;91.10;;;;;;5145426;27;20474;-69
2022/09/23 00:26:40;;;;;;;4.50;3.20;;;22.50;91.30;;;;;;5143908;27;20520;-70
2022/09/23 00:29:11;;;;;;;3.47;3.17;;;22.50;91.30;;;;;;5144588;27;20532;-69
2022/09/23 00:31:45;;;;;;;3.83;2.80;;;22.50;92.00;;;;;;5143773;27;20493;-69
2022/09/23 00:34:15;;;;;;;5.37;4.97;;;22.60;91.30;;;;;;5141772;27;20434;-68
2022/09/23 00:36:46;;;;;;;8.03;7.30;;;22.60;91.10;;;;;;5123621;28;20450;-67
2022/09/23 00:39:17;;;;;;;14.67;13.30;;;22.70;90.90;;;;;;5132905;27;20457;-68
2022/09/23 00:41:48;;;;;;;16.57;15.20;;;22.70;91.20;;;;;;5143113;27;20452;-68
2022/09/23 00:44:44;;;;;;;15.50;14.20;;;22.60;91.30;;;;;;5144426;27;20501;-68
2022/09/23 00:47:21;;;;;;;28.87;26.57;;;22.60;91.70;;;;;;5144976;27;20781;-68
2022/09/23 00:50:00;;;;;;;3.50;3.20;;;22.70;91.60;;;;;;5144033;27;20525;-69
2022/09/23 00:52:32;;;;;;;2.93;2.60;;;22.80;91.40;;;;;;5144998;27;20440;-67
2022/09/23 00:55:09;;;;;;;2.97;2.73;;;22.80;91.90;;;;;;5143779;27;20474;-68
2022/09/23 00:57:40;;;;;;;2.10;1.90;;;22.80;87.90;;;;;;5144582;27;20452;-69
2022/09/23 01:00:12;;;;;;;2.73;2.50;;;22.80;86.70;;;;;;5144103;27;20448;-70
2022/09/23 01:02:45;;;;;;;2.33;2.20;;;22.80;84.20;;;;;;5143862;27;20473;-68
2022/09/23 01:05:16;;;;;;;3.43;2.23;;;22.80;84.40;;;;;;5144310;27;20462;-69
2022/09/23 01:07:48;;;;;;;2.70;2.50;;;22.80;84.50;;;;;;5145282;27;20429;-68
2022/09/23 01:10:20;;;;;;;2.07;1.90;;;22.60;84.00;;;;;;5143287;27;20557;-68
2022/09/23 01:13:10;;;;;;;2.80;2.60;;;22.50;84.00;;;;;;5144260;27;20470;-67
2022/09/23 01:15:47;;;;;;;2.83;1.70;;;22.30;84.60;;;;;;5144075;27;20528;-69
2022/09/23 01:18:30;;;;;;;2.23;2.10;;;22.20;84.70;;;;;;5136826;27;20506;-69
2022/09/23 01:21:14;;;;;;;2.50;2.30;;;22.00;85.60;;;;;;5142019;27;20457;-69
2022/09/23 01:24:30;;;;;;;2.10;1.90;;;21.80;85.00;;;;;;5143711;27;20419;-70
2022/09/23 01:27:07;;;;;;;3.20;1.90;;;21.70;85.60;;;;;;5144041;27;20453;-69
2022/09/23 01:30:05;;;;;;;2.33;2.10;;;21.60;86.20;;;;;;5143315;27;20511;-69
2022/09/23 01:33:05;;;;;;;2.43;2.20;;;21.40;86.50;;;;;;5143200;27;20445;-70
2022/09/23 01:35:46;;;;;;;2.67;2.47;;;21.30;86.20;;;;;;5143589;27;20518;-69
2022/09/23 01:38:27;;;;;;;2.37;2.17;;;21.20;87.00;;;;;;5144414;27;20454;-69
2022/09/23 01:41:03;;;;;;;2.57;2.37;;;21.10;88.70;;;;;;5143069;27;20444;-69
2022/09/23 01:43:40;;;;;;;3.30;2.43;;;21.00;89.10;;;;;;5116609;28;20446;-70
2022/09/23 01:46:16;;;;;;;3.17;2.33;;;20.90;88.40;;;;;;5122843;28;20479;-69
2022/09/23 01:48:56;;;;;;;2.93;2.63;;;20.70;88.40;;;;;;5123185;28;20469;-70
2022/09/23 01:51:31;;;;;;;2.83;2.63;;;20.60;88.80;;;;;;5102372;28;21024;-69
2022/09/23 01:54:10;;;;;;;2.97;2.70;;;20.50;89.80;;;;;;5102686;28;20695;-68
2022/09/23 01:56:45;;;;;;;2.50;2.30;;;20.30;90.20;;;;;;5102107;28;20417;-68
2022/09/23 01:59:21;;;;;;;2.90;2.00;;;20.30;90.70;;;;;;5107950;28;20451;-68
2022/09/23 02:01:57;;;;;;;2.90;2.23;;;20.10;90.60;;;;;;5142343;27;20456;-69
2022/09/23 02:04:38;;;;;;;2.00;1.90;;;20.00;90.80;;;;;;5143409;28;20444;-68
2022/09/23 02:07:13;;;;;;;3.37;2.50;;;19.80;91.10;;;;;;5142931;27;20440;-68
2022/09/23 02:09:48;;;;;;;2.63;2.30;;;19.80;91.10;;;;;;5141834;27;20445;-67
2022/09/23 02:12:21;;;;;;;2.30;2.10;;;19.70;91.30;;;;;;5142685;27;20917;-67
2022/09/23 02:15:01;;;;;;;3.20;2.00;;;19.60;91.80;;;;;;5143344;27;20419;-67
2022/09/23 02:17:38;;;;;;;1.90;1.80;;;19.50;91.60;;;;;;5143365;27;20429;-67
2022/09/23 02:20:14;;;;;;;2.77;2.10;;;19.30;92.70;;;;;;5142823;27;20505;-68
2022/09/23 02:22:55;;;;;;;2.90;2.53;;;19.20;93.40;;;;;;5142866;27;20522;-68
2022/09/23 02:25:32;;;;;;;3.50;3.10;;;19.10;92.90;;;;;;5142244;27;20467;-67
2022/09/23 02:28:09;;;;;;;3.30;3.00;;;19.10;93.30;;;;;;5115847;28;20466;-68
2022/09/23 02:30:47;;;;;;;3.10;2.77;;;19.00;92.90;;;;;;5113633;28;20461;-68
2022/09/23 02:33:24;;;;;;;2.03;1.93;;;18.90;93.00;;;;;;5128366;28;20451;-68
2022/09/23 02:36:01;;;;;;;2.03;1.93;;;18.80;93.60;;;;;;5124335;28;20489;-68
2022/09/23 02:38:37;;;;;;;2.70;2.03;;;18.80;93.60;;;;;;5115736;28;20439;-71
2022/09/23 02:41:14;;;;;;;2.43;2.23;;;18.70;93.40;;;;;;5136430;27;20804;-72
2022/09/23 02:43:50;;;;;;;2.97;2.77;;;18.70;93.20;;;;;;5125848;27;20427;-70
2022/09/23 02:46:22;;;;;;;3.30;3.00;;;18.70;93.30;;;;;;5122868;27;20436;-73
2022/09/23 02:48:56;;;;;;;2.87;2.47;;;18.60;93.90;;;;;;5129656;27;20460;-75
2022/09/23 02:51:34;;;;;;;2.80;2.60;;;18.50;93.80;;;;;;5148180;27;20502;-70
2022/09/23 02:54:09;;;;;;;2.37;2.17;;;18.50;94.50;;;;;;5127887;27;20453;-73
2022/09/23 02:56:40;;;;;;;2.10;2.00;;;18.40;94.40;;;;;;5126856;27;20438;-76
2022/09/23 02:59:12;;;;;;;2.90;2.17;;;18.30;95.20;;;;;;5121596;27;20521;-75
2022/09/23 03:01:53;;;;;;;2.50;2.30;;;18.20;95.20;;;;;;5135099;27;20459;-69
2022/09/23 03:04:31;;;;;;;2.87;2.57;;;18.20;95.10;;;;;;5136854;27;21190;-70
2022/09/23 03:07:14;;;;;;;2.13;1.93;;;18.10;95.40;;;;;;5125563;27;21199;-70
2022/09/23 03:09:53;;;;;;;3.00;2.37;;;18.00;96.10;;;;;;5133958;27;20452;-70
2022/09/23 03:12:34;;;;;;;3.10;2.70;;;17.90;96.10;;;;;;5141599;27;20851;-70
2022/09/23 03:15:23;;;;;;;2.70;2.30;;;17.80;96.30;;;;;;5110373;27;20461;-67
2022/09/23 03:17:59;;;;;;;3.77;2.50;;;17.70;96.90;;;;;;5130029;27;20498;-65
2022/09/23 03:20:34;;;;;;;2.67;2.47;;;17.60;96.80;;;;;;5139845;27;20448;-67
2022/09/23 03:23:09;;;;;;;2.90;2.60;;;17.60;96.90;;;;;;5116711;27;20457;-67
2022/09/23 03:25:43;;;;;;;2.60;2.30;;;17.50;96.90;;;;;;5136920;27;21218;-66
2022/09/23 03:28:17;;;;;;;2.43;2.20;;;17.40;97.60;;;;;;5127811;27;21039;-67
2022/09/23 03:30:49;;;;;;;2.23;2.03;;;17.40;97.80;;;;;;5131266;27;20541;-66
2022/09/23 03:33:26;;;;;;;2.33;2.13;;;17.30;98.10;;;;;;5145522;27;20805;-66
2022/09/23 03:38:52;;;;;;;2.67;2.03;;;17.10;99.60;;;;;;5143201;27;20419;-65
2022/09/23 03:41:29;;;;;;;2.47;2.27;;;17.10;99.90;;;;;;5134180;27;20456;-65
2022/09/23 03:44:00;;;;;;;1.50;1.40;;;17.00;99.90;;;;;;5123456;27;20953;-65
2022/09/23 03:46:34;;;;;;;2.73;2.40;;;16.80;99.90;;;;;;5117018;27;20456;-65
2022/09/23 03:49:11;;;;;;;2.53;2.30;;;16.80;99.90;;;;;;5143071;27;20816;-64
2022/09/23 03:51:42;;;;;;;2.57;2.33;;;16.80;99.90;;;;;;5140209;27;20522;-65
2022/09/23 03:54:15;;;;;;;2.63;2.43;;;16.70;99.90;;;;;;5117920;27;20434;-66
2022/09/23 03:56:46;;;;;;;3.70;2.50;;;16.70;99.90;;;;;;5109069;27;20524;-66
2022/09/23 03:59:17;;;;;;;3.07;2.77;;;16.60;99.90;;;;;;5133781;27;20448;-66
2022/09/23 04:01:49;;;;;;;2.40;2.20;;;16.60;99.90;;;;;;5123528;27;20860;-65
2022/09/23 04:04:20;;;;;;;3.50;2.50;;;16.60;99.90;;;;;;5136816;27;20456;-65
2022/09/23 04:06:50;;;;;;;2.70;2.50;;;16.50;99.90;;;;;;5125446;27;20454;-65
2022/09/23 04:09:23;;;;;;;3.33;2.30;;;16.40;99.90;;;;;;5128285;27;20487;-67
2022/09/23 04:11:55;;;;;;;3.00;2.37;;;16.40;99.90;;;;;;5102662;27;20523;-64
2022/09/23 04:14:25;;;;;;;2.50;2.30;;;16.40;99.90;;;;;;5122649;27;20478;-65
2022/09/23 04:16:57;;;;;;;4.20;2.43;;;16.40;99.90;;;;;;5126090;27;20526;-66
2022/09/23 04:19:27;;;;;;;2.50;2.13;;;16.30;99.90;;;;;;5130280;27;20448;-65
2022/09/23 04:21:58;;;;;;;3.10;2.83;;;16.20;99.90;;;;;;5129909;27;20454;-64
2022/09/23 04:24:31;;;;;;;2.40;2.20;;;16.20;99.90;;;;;;5123912;27;20558;-65
2022/09/23 04:27:02;;;;;;;3.50;2.63;;;16.20;99.90;;;;;;5131357;27;20457;-65
2022/09/23 04:29:33;;;;;;;2.47;2.27;;;16.20;99.90;;;;;;5130341;27;20568;-65
2022/09/23 04:32:04;;;;;;;2.53;2.20;;;16.10;99.90;;;;;;5109082;27;21015;-66
2022/09/23 04:34:34;;;;;;;3.00;2.30;;;16.10;99.90;;;;;;5115634;27;20454;-65
2022/09/23 04:37:05;;;;;;;2.67;2.47;;;16.10;99.90;;;;;;5135758;27;20449;-65
2022/09/23 04:39:37;;;;;;;3.17;2.87;;;16.10;99.90;;;;;;5138678;27;20494;-70
2022/09/23 04:42:08;;;;;;;2.60;2.33;;;16.00;99.90;;;;;;5121458;27;20580;-66
2022/09/23 04:44:39;;;;;;;2.97;2.77;;;15.90;99.90;;;;;;5114288;27;20453;-72
2022/09/23 04:47:10;;;;;;;2.93;2.63;;;15.90;99.90;;;;;;5116657;27;20465;-69
2022/09/23 04:49:41;;;;;;;2.60;2.40;;;15.80;99.90;;;;;;5131236;27;20449;-68
2022/09/23 04:52:12;;;;;;;2.63;2.43;;;15.70;99.90;;;;;;5116812;27;20494;-70
2022/09/23 04:54:44;;;;;;;3.10;2.50;;;15.70;99.90;;;;;;5118628;27;20449;-69
2022/09/23 04:57:16;;;;;;;3.53;2.60;;;15.60;99.90;;;;;;5143536;27;20881;-71
2022/09/23 04:59:47;;;;;;;2.77;2.47;;;15.50;99.90;;;;;;5117188;27;20529;-65
2022/09/23 05:02:18;;;;;;;2.93;2.63;;;15.50;99.90;;;;;;5142134;27;20477;-64
2022/09/23 05:04:49;;;;;;;4.50;2.93;;;15.50;99.90;;;;;;5125881;27;20466;-64
2022/09/23 05:07:20;;;;;;;3.33;2.43;;;15.50;99.90;;;;;;5134878;27;20438;-64
2022/09/23 05:09:52;;;;;;;3.13;2.50;;;15.40;99.90;;;;;;5121424;27;20517;-64
2022/09/23 05:12:23;;;;;;;2.53;2.30;;;15.40;99.90;;;;;;5142265;27;20517;-64
2022/09/23 05:14:56;;;;;;;3.00;2.67;;;15.30;99.90;;;;;;5126672;27;20468;-64
2022/09/23 05:17:30;;;;;;;2.37;2.17;;;15.40;99.90;;;;;;5133751;27;20428;-64
2022/09/23 05:20:00;;;;;;;3.00;2.73;;;15.30;99.90;;;;;;5131356;27;20452;-64
2022/09/23 05:22:31;;;;;;;5.43;2.73;;;15.30;99.90;;;;;;5136580;27;20523;-64
2022/09/23 05:25:04;;;;;;;3.03;2.73;;;15.30;99.90;;;;;;5115536;28;20488;-64
2022/09/23 05:27:35;;;;;;;3.17;2.60;;;15.20;99.90;;;;;;5140033;27;20441;-64
2022/09/23 05:30:07;;;;;;;2.70;2.50;;;15.10;99.90;;;;;;5127282;27;20454;-64
2022/09/23 05:32:37;;;;;;;2.93;2.60;;;15.00;99.90;;;;;;5127517;27;20455;-63
2022/09/23 05:35:08;;;;;;;3.50;3.20;;;15.00;99.90;;;;;;5138931;27;20464;-63
2022/09/23 05:37:41;;;;;;;4.43;3.60;;;15.00;99.90;;;;;;5125546;27;21001;-64
2022/09/23 05:40:13;;;;;;;2.87;2.40;;;15.00;99.90;;;;;;5125678;27;21110;-64
2022/09/23 05:42:44;;;;;;;2.73;2.40;;;15.00;99.90;;;;;;5116143;27;20466;-63
2022/09/23 05:45:15;;;;;;;2.87;2.30;;;14.90;99.90;;;;;;5116024;27;20495;-64
2022/09/23 05:47:47;;;;;;;2.50;2.17;;;14.90;99.90;;;;;;5142444;27;20449;-64
2022/09/23 05:50:18;;;;;;;2.40;2.20;;;14.80;99.90;;;;;;5143190;27;20457;-63
2022/09/23 05:52:48;;;;;;;2.43;2.23;;;14.80;99.90;;;;;;5141808;27;20501;-64
2022/09/23 05:55:21;;;;;;;2.77;2.40;;;14.70;99.90;;;;;;5137538;27;20445;-63
2022/09/23 05:57:51;;;;;;;3.67;2.40;;;14.60;99.90;;;;;;5125633;27;20451;-64
2022/09/23 06:00:22;;;;;;;2.83;2.50;;;14.60;99.90;;;;;;5140855;27;20445;-65
2022/09/23 06:02:53;;;;;;;2.67;2.17;;;14.60;99.90;;;;;;5140662;27;20473;-66
2022/09/23 06:05:25;;;;;;;3.27;2.43;;;14.40;99.90;;;;;;5128984;28;20768;-64
2022/09/23 06:07:57;;;;;;;2.67;2.47;;;14.40;99.90;;;;;;5128378;27;20462;-63
2022/09/23 06:10:29;;;;;;;2.03;1.90;;;14.40;99.90;;;;;;5123731;28;20484;-63
2022/09/23 06:13:00;;;;;;;3.13;2.43;;;14.40;99.90;;;;;;5112842;28;20884;-63
2022/09/23 06:15:31;;;;;;;6.10;2.90;;;14.30;99.90;;;;;;5132333;27;20445;-64
2022/09/23 06:18:02;;;;;;;3.50;3.03;;;14.30;99.90;;;;;;5142706;27;20441;-63
2022/09/23 06:20:34;;;;;;;3.67;2.70;;;14.20;99.90;;;;;;5144665;27;20460;-63
2022/09/23 06:23:05;;;;;;;4.53;2.83;;;14.20;99.90;;;;;;5147436;27;20449;-63
2022/09/23 06:25:41;;;;;;;2.80;2.53;;;14.20;99.90;;;;;;5143801;27;20444;-63
2022/09/23 06:28:13;;;;;;;3.50;2.97;;;14.10;99.90;;;;;;5142834;27;20454;-63
2022/09/23 06:30:44;;;;;;;2.90;2.60;;;14.10;99.90;;;;;;5146743;27;20502;-64
2022/09/23 06:33:16;;;;;;;2.83;2.50;;;14.00;99.90;;;;;;5130757;27;20505;-63
2022/09/23 06:36:09;;;;;;;5.30;2.50;;;13.90;99.90;;;;;;5141048;27;20444;-62
2022/09/23 06:38:42;;;;;;;3.50;2.77;;;13.90;99.90;;;;;;5137108;27;20502;-63
2022/09/23 06:41:15;;;;;;;2.57;2.33;;;13.90;99.90;;;;;;5145846;27;20441;-64
2022/09/23 06:43:46;;;;;;;3.40;2.63;;;13.90;99.90;;;;;;5146527;27;20478;-64
2022/09/23 06:46:17;;;;;;;4.07;2.33;;;13.90;99.90;;;;;;5144748;27;21041;-64
2022/09/23 06:48:49;;;;;;;3.10;2.90;;;13.80;99.90;;;;;;5138291;27;20450;-64
2022/09/23 06:51:23;;;;;;;3.07;2.70;;;13.80;99.90;;;;;;5123833;27;20556;-64
2022/09/23 06:53:54;;;;;;;2.60;2.40;;;13.70;99.90;;;;;;5146529;27;20484;-64
2022/09/23 06:56:26;;;;;;;3.13;2.83;;;13.70;99.90;;;;;;5139633;27;20518;-63
2022/09/23 06:58:57;;;;;;;3.43;3.00;;;13.70;99.90;;;;;;5144854;27;20509;-64
2022/09/23 07:01:28;;;;;;;5.13;2.83;;;13.60;99.90;;;;;;5146061;27;20544;-65
2022/09/23 07:04:00;;;;;;;3.30;2.97;;;13.60;99.90;;;;;;5138079;27;21007;-64
2022/09/23 07:06:34;;;;;;;3.27;2.40;;;13.50;99.90;;;;;;5136652;27;20460;-64
2022/09/23 07:09:05;;;;;;;3.17;2.87;;;13.50;99.90;;;;;;5126987;27;20457;-64
2022/09/23 07:11:38;;;;;;;4.00;2.83;;;13.50;99.90;;;;;;5134659;27;20451;-64
2022/09/23 07:14:09;;;;;;;3.40;3.10;;;13.50;99.90;;;;;;5142454;27;20556;-62
2022/09/23 07:16:40;;;;;;;2.77;2.57;;;13.30;99.90;;;;;;5145904;27;20474;-62
2022/09/23 07:19:11;;;;;;;4.03;2.73;;;13.30;99.90;;;;;;5137893;27;20513;-63
2022/09/23 07:21:42;;;;;;;5.57;2.97;;;13.30;99.90;;;;;;5124803;27;20984;-64
2022/09/23 07:24:13;;;;;;;3.50;2.27;;;13.30;99.90;;;;;;5131406;27;20990;-63
2022/09/23 07:26:45;;;;;;;3.40;2.87;;;13.20;99.90;;;;;;5139889;27;20505;-62
2022/09/23 07:29:19;;;;;;;2.90;2.70;;;13.20;99.90;;;;;;5144875;27;20444;-63
2022/09/23 07:31:49;;;;;;;3.23;2.93;;;13.20;99.90;;;;;;5144634;27;20489;-63
2022/09/23 07:34:21;;;;;;;4.50;2.70;;;13.20;99.90;;;;;;5146310;27;20481;-63
2022/09/23 07:36:54;;;;;;;3.60;3.30;;;13.10;99.90;;;;;;5145222;27;20452;-63
2022/09/23 07:39:25;;;;;;;3.40;2.60;;;13.00;99.90;;;;;;5136777;27;20885;-63
2022/09/23 07:41:58;;;;;;;3.37;3.07;;;13.00;99.90;;;;;;5126450;27;20448;-63
2022/09/23 07:44:30;;;;;;;2.40;2.20;;;12.90;99.90;;;;;;5145486;27;20478;-64
2022/09/23 07:47:01;;;;;;;2.87;2.27;;;12.90;99.90;;;;;;5145333;27;20441;-64
2022/09/23 07:49:35;;;;;;;3.40;2.60;;;12.90;99.90;;;;;;5145375;27;20449;-64
2022/09/23 07:52:06;;;;;;;2.73;2.23;;;12.90;99.90;;;;;;5145351;27;20441;-63
2022/09/23 07:54:37;;;;;;;3.40;3.10;;;12.90;99.90;;;;;;5144383;27;20929;-63
2022/09/23 07:57:09;;;;;;;3.23;2.73;;;12.90;99.90;;;;;;5136638;27;20460;-64
2022/09/23 07:59:42;;;;;;;3.10;2.80;;;12.90;99.90;;;;;;5126014;27;20462;-64
2022/09/23 08:02:15;;;;;;;3.23;2.93;;;12.90;99.90;;;;;;5133161;27;20488;-64
2022/09/23 08:04:49;;;;;;;3.50;3.20;;;12.90;99.90;;;;;;5128123;27;20461;-64
2022/09/23 08:07:20;;;;;;;3.40;3.10;;;12.90;99.90;;;;;;5124651;27;20623;-64
2022/09/23 08:09:50;;;;;;;2.37;2.17;;;12.80;99.90;;;;;;5135374;27;20518;-63
2022/09/23 08:12:25;;;;;;;3.57;2.93;;;12.80;99.90;;;;;;5131719;27;20465;-63
2022/09/23 08:14:56;;;;;;;4.33;2.90;;;12.80;99.90;;;;;;5137014;27;20505;-64
2022/09/23 08:17:29;;;;;;;3.93;2.43;;;12.70;99.90;;;;;;5143731;27;20536;-64
2022/09/23 08:20:00;;;;;;;3.93;2.27;;;12.70;99.90;;;;;;5136543;27;20526;-63
2022/09/23 08:22:30;;;;;;;3.10;2.90;;;12.70;99.90;;;;;;5122344;27;20463;-64
2022/09/23 08:25:01;;;;;;;2.80;2.60;;;12.60;99.90;;;;;;5113366;27;20564;-64
2022/09/23 08:27:35;;;;;;;2.43;2.23;;;12.50;99.90;;;;;;5109789;27;20474;-64
2022/09/23 08:30:06;;;;;;;2.30;2.10;;;12.60;99.90;;;;;;5127319;27;20552;-64
2022/09/23 08:32:37;;;;;;;5.40;2.83;;;12.60;99.90;;;;;;5128399;27;20515;-64
2022/09/23 08:35:09;;;;;;;3.80;2.40;;;12.50;99.90;;;;;;5129993;27;20541;-64
2022/09/23 08:37:40;;;;;;;5.07;2.37;;;12.50;99.90;;;;;;5134375;27;20804;-63
2022/09/23 08:40:11;;;;;;;3.33;2.57;;;12.40;99.90;;;;;;5117088;27;20459;-63
2022/09/23 08:42:45;;;;;;;2.57;2.37;;;12.40;99.90;;;;;;5126672;27;20529;-62
2022/09/23 08:45:21;;;;;;;3.17;2.87;;;12.50;99.90;;;;;;5135476;27;21029;-63
2022/09/23 08:47:59;;;;;;;3.43;3.13;;;12.50;99.90;;;;;;5136161;27;20464;-63
2022/09/23 08:50:34;;;;;;;3.87;2.67;;;12.60;99.90;;;;;;5122184;27;20563;-63
2022/09/23 08:53:08;;;;;;;3.40;3.20;;;12.50;99.90;;;;;;5122143;27;20509;-63
2022/09/23 08:55:42;;;;;;;2.83;2.57;;;12.50;99.90;;;;;;5135834;27;20464;-63
2022/09/23 08:58:34;;;;;;;3.03;2.80;;;12.50;99.90;;;;;;5123667;27;20462;-64
2022/09/23 09:01:23;;;;;;;6.10;2.60;;;12.50;99.90;;;;;;5113002;27;20463;-64
2022/09/23 09:03:57;;;;;;;3.30;2.40;;;12.50;99.90;;;;;;5105967;28;20532;-64
2022/09/23 09:06:31;;;;;;;3.40;2.90;;;12.40;99.90;;;;;;5108413;27;20462;-64
2022/09/23 09:09:25;;;;;;;3.17;2.97;;;12.30;99.90;;;;;;5120988;27;20520;-64
2022/09/23 09:12:03;;;;;;;3.03;2.23;;;12.20;99.90;;;;;;5130880;27;20565;-64
2022/09/23 09:14:44;;;;;;;4.77;3.33;;;12.20;99.90;;;;;;5132972;27;20480;-64
2022/09/23 09:17:23;;;;;;;2.63;2.40;;;12.20;99.90;;;;;;5136380;27;20456;-64
2022/09/23 09:19:56;;;;;;;2.83;2.40;;;12.20;99.90;;;;;;5115696;27;20831;-64
2022/09/23 09:22:41;;;;;;;3.30;2.73;;;12.20;99.90;;;;;;5132750;27;20518;-64
2022/09/23 09:25:37;;;;;;;4.33;2.83;;;12.20;99.90;;;;;;5120123;27;20917;-64
2022/09/23 09:28:23;;;;;;;4.90;2.80;;;12.10;99.90;;;;;;5128038;27;20471;-62
2022/09/23 09:31:00;;;;;;;3.67;2.70;;;12.10;99.90;;;;;;5128071;27;20528;-63
2022/09/23 09:33:39;;;;;;;3.00;2.67;;;12.10;99.90;;;;;;5130352;27;20448;-64
2022/09/23 09:36:21;;;;;;;3.43;2.67;;;12.10;99.90;;;;;;5117385;27;20534;-62
2022/09/23 09:38:57;;;;;;;3.00;2.70;;;12.00;99.90;;;;;;5132903;27;20461;-62
2022/09/23 09:41:30;;;;;;;3.50;2.60;;;12.00;99.90;;;;;;5128320;27;20519;-62
2022/09/23 09:44:03;;;;;;;3.70;2.60;;;12.00;99.90;;;;;;5111151;27;20507;-63
2022/09/23 09:46:51;;;;;;;2.97;2.77;;;11.90;99.90;;;;;;5136887;27;20448;-63
2022/09/23 09:49:33;;;;;;;3.40;3.00;;;11.90;99.90;;;;;;5108249;28;20462;-63
2022/09/23 09:52:28;;;;;;;2.60;2.40;;;11.90;99.90;;;;;;5123074;27;20548;-63
2022/09/23 09:55:24;;;;;;;2.90;2.60;;;11.80;99.90;;;;;;5119136;27;20564;-63
2022/09/23 09:58:00;;;;;;;3.90;3.13;;;11.70;99.90;;;;;;5121834;27;20525;-64
2022/09/23 10:00:40;;;;;;;3.30;2.30;;;11.80;99.90;;;;;;5130499;27;20969;-63
2022/09/23 10:03:31;;;;;;;3.27;2.97;;;11.70;99.90;;;;;;5122986;27;20489;-63
2022/09/23 10:06:16;;;;;;;3.93;2.83;;;11.70;99.90;;;;;;5130994;27;20476;-63
2022/09/23 10:09:04;;;;;;;3.73;3.10;;;11.70;99.90;;;;;;5134202;28;20490;-63
2022/09/23 10:11:35;;;;;;;2.80;2.57;;;11.60;99.90;;;;;;5128713;27;20556;-63
2022/09/23 10:14:12;;;;;;;3.03;2.73;;;11.60;99.90;;;;;;5125492;27;20484;-63
2022/09/23 10:16:43;;;;;;;4.20;3.00;;;11.50;99.90;;;;;;5127942;27;20467;-63
2022/09/23 10:19:25;;;;;;;3.73;3.00;;;11.40;99.90;;;;;;5133592;27;20797;-63
2022/09/23 10:21:59;;;;;;;5.87;2.77;;;11.50;99.90;;;;;;5135863;27;21147;-63
2022/09/23 10:24:31;;;;;;;5.43;2.60;;;11.50;99.90;;;;;;5118066;27;20462;-63
2022/09/23 10:27:06;;;;;;;3.20;2.70;;;11.50;99.90;;;;;;5126312;28;20493;-64
2022/09/23 10:29:40;;;;;;;3.33;2.57;;;11.50;99.90;;;;;;5114511;28;20576;-63
2022/09/23 10:32:26;;;;;;;3.37;3.07;;;11.50;99.90;;;;;;5107021;28;20469;-63
2022/09/23 10:35:03;;;;;;;2.97;2.67;;;11.40;99.90;;;;;;5117256;28;20524;-63
2022/09/23 10:37:38;;;;;;;3.83;2.53;;;11.40;99.90;;;;;;5115069;28;20456;-64
2022/09/23 10:49:39;;;;;;;3.33;2.77;;;11.40;99.90;;;;;;5119358;28;20460;-63
2022/09/23 10:52:30;;;;;;;3.00;2.70;;;11.20;99.90;;;;;;5128963;28;20452;-63
2022/09/23 10:55:12;;;;;;;4.17;2.90;;;11.20;99.90;;;;;;5113480;28;20500;-63
2022/09/23 10:57:58;;;;;;;4.00;3.20;;;11.20;99.90;;;;;;5122367;27;20458;-63
2022/09/23 11:00:39;;;;;;;5.50;3.20;;;11.10;99.90;;;;;;5121730;27;20463;-64
2022/09/23 11:03:49;;;;;;;5.80;2.90;;;11.10;99.90;;;;;;5111723;27;20488;-63
2022/09/23 11:06:25;;;;;;;3.93;3.53;;;11.10;99.90;;;;;;5120881;27;20472;-63
2022/09/23 11:09:18;;;;;;;3.50;2.83;;;11.10;99.90;;;;;;5139346;27;20461;-63
2022/09/23 11:12:02;;;;;;;3.33;2.50;;;11.10;99.90;;;;;;5116838;27;20469;-63
2022/09/23 11:14:51;;;;;;;3.93;3.20;;;11.10;99.90;;;;;;5115454;27;20482;-63
2022/09/23 11:17:47;;;;;;;4.63;3.13;;;11.00;99.90;;;;;;5128854;27;20461;-64
2022/09/23 11:20:34;;;;;;;3.30;3.00;;;11.00;99.90;;;;;;5129690;27;20547;-64
2022/09/23 11:23:54;;;;;;;2.50;2.30;;;10.90;99.90;;;;;;5120056;27;20445;-63
2022/09/23 11:26:51;;;;;;;2.97;2.67;;;10.90;99.90;;;;;;5119453;27;20939;-63
2022/09/23 11:29:49;;;;;;;3.70;3.30;;;10.90;99.90;;;;;;5118105;27;20452;-64
2022/09/23 11:32:38;;;;;;;3.33;3.03;;;10.90;99.90;;;;;;5130851;27;20449;-63
2022/09/23 11:35:19;;;;;;;4.10;3.80;;;11.00;99.90;;;;;;5123575;27;20595;-64
2022/09/23 11:37:56;;;;;;;4.30;3.23;;;11.00;99.90;;;;;;5129329;27;20475;-63
2022/09/23 11:40:33;;;;;;;3.43;3.13;;;10.90;99.90;;;;;;5127080;27;21013;-64
2022/09/23 11:43:14;;;;;;;4.03;3.60;;;11.00;99.90;;;;;;5138623;27;20452;-63
2022/09/23 11:45:53;;;;;;;3.63;2.90;;;10.90;99.90;;;;;;5112245;27;20459;-63
2022/09/23 11:48:30;;;;;;;4.07;3.20;;;11.00;99.90;;;;;;5138804;27;20464;-63
2022/09/23 11:51:05;;;;;;;3.33;2.63;;;10.90;99.90;;;;;;5144970;27;20503;-63
2022/09/23 11:53:46;;;;;;;4.33;3.00;;;10.80;99.90;;;;;;5145212;27;20795;-64
2022/09/23 11:56:20;;;;;;;3.13;2.77;;;10.80;99.90;;;;;;5128315;27;20518;-63
2022/09/23 11:59:10;;;;;;;3.83;3.53;;;10.80;99.90;;;;;;5145206;27;20436;-63
2022/09/23 12:01:48;;;;;;;3.77;3.47;;;10.80;99.90;;;;;;5144327;27;21560;-64
2022/09/23 12:04:26;;;;;;;3.50;2.90;;;10.70;99.90;;;;;;5145523;27;20809;-63
2022/09/23 12:07:04;;;;;;;5.07;3.20;;;10.70;99.90;;;;;;5144948;27;20936;-63
2022/09/23 12:09:43;;;;;;;4.80;3.00;;;10.70;99.90;;;;;;5144896;27;20453;-63
2022/09/23 12:12:36;;;;;;;3.17;2.87;;;10.70;99.90;;;;;;5118437;27;20463;-63
2022/09/23 12:15:30;;;;;;;4.17;3.10;;;10.70;99.90;;;;;;5122160;27;20484;-62
2022/09/23 12:18:24;;;;;;;3.30;2.93;;;10.60;99.90;;;;;;5141518;27;20453;-63
2022/09/23 12:21:07;;;;;;;3.27;2.47;;;10.60;99.90;;;;;;5141328;27;20437;-63
2022/09/23 12:24:06;;;;;;;3.13;2.30;;;10.60;99.90;;;;;;5134949;27;20453;-62
2022/09/23 12:26:40;;;;;;;3.50;3.20;;;10.60;99.90;;;;;;5125521;27;20809;-63
2022/09/23 12:29:14;;;;;;;3.70;3.23;;;10.50;99.90;;;;;;5130415;27;20452;-62
2022/09/23 12:31:48;;;;;;;3.97;2.93;;;10.50;99.90;;;;;;5141909;27;20475;-63
2022/09/23 12:34:28;;;;;;;4.27;3.50;;;10.50;99.90;;;;;;5135512;27;20521;-62
2022/09/23 12:37:04;;;;;;;3.60;3.30;;;10.50;99.90;;;;;;5140222;27;20480;-62
2022/09/23 12:39:38;;;;;;;2.87;2.53;;;10.50;99.90;;;;;;5138543;27;20468;-63
2022/09/23 12:42:16;;;;;;;4.63;3.77;;;10.50;99.90;;;;;;5139102;27;20768;-61
2022/09/23 12:44:48;;;;;;;4.20;3.23;;;10.40;99.90;;;;;;5113356;27;20560;-62
2022/09/23 12:47:39;;;;;;;3.50;2.87;;;10.40;99.90;;;;;;5126878;27;20476;-63
2022/09/23 12:50:46;;;;;;;5.43;4.00;;;10.30;99.90;;;;;;5135204;27;20448;-63
2022/09/23 12:53:53;;;;;;;3.70;2.97;;;10.30;99.90;;;;;;5118419;27;20458;-62
2022/09/23 12:56:49;;;;;;;3.50;3.20;;;10.30;99.90;;;;;;5132907;27;20496;-62
2022/09/23 12:59:29;;;;;;;4.87;3.97;;;10.40;99.90;;;;;;5138543;27;20904;-62
2022/09/23 13:02:23;;;;;;;4.60;3.83;;;10.40;99.90;;;;;;5124045;27;20511;-62
2022/09/23 13:07:52;;;;;;;3.23;3.00;;;10.30;99.90;;;;;;5125648;27;20577;-63
2022/09/23 13:10:31;;;;;;;4.57;3.57;;;10.20;99.90;;;;;;5139615;27;20491;-64
2022/09/23 13:13:03;;;;;;;3.27;2.97;;;10.20;99.90;;;;;;5141594;27;20480;-65
2022/09/23 13:15:37;;;;;;;3.90;2.70;;;10.10;99.90;;;;;;5110499;27;20488;-64
2022/09/23 13:18:55;;;;;;;3.37;3.07;;;10.20;99.90;;;;;;5131549;27;20462;-64
2022/09/23 13:22:05;;;;;;;5.17;3.30;;;10.20;99.90;;;;;;5117248;27;20483;-62
2022/09/23 13:24:58;;;;;;;4.83;3.00;;;10.20;99.90;;;;;;5123781;27;20552;-63
2022/09/23 13:27:32;;;;;;;3.87;3.57;;;10.10;99.90;;;;;;5125970;27;20453;-63
2022/09/23 13:30:06;;;;;;;3.97;3.30;;;10.10;99.90;;;;;;5111529;27;20542;-63
2022/09/23 13:32:46;;;;;;;3.20;2.90;;;10.10;99.90;;;;;;5108452;27;20456;-63
2022/09/23 13:35:25;;;;;;;5.93;3.03;;;10.20;99.90;;;;;;5126763;27;20465;-63
2022/09/23 13:37:57;;;;;;;3.80;3.50;;;10.10;99.90;;;;;;5135912;27;20505;-63
2022/09/23 13:40:30;;;;;;;3.80;2.83;;;10.10;99.90;;;;;;5136175;27;20462;-63
2022/09/23 13:43:06;;;;;;;6.30;3.20;;;10.10;99.90;;;;;;5122549;27;20962;-63
2022/09/23 13:45:42;;;;;;;4.20;3.33;;;10.10;99.90;;;;;;5119800;27;20473;-63
2022/09/23 13:48:15;;;;;;;4.80;3.53;;;10.00;99.90;;;;;;5104247;27;20453;-62
2022/09/23 13:50:49;;;;;;;5.20;4.60;;;10.10;99.90;;;;;;5137788;27;20473;-62